Pagina principale
METAR-TAF:

METAR-TAF

Aeroporti :

Bolzano, Italia

latitudine: 46-28N, longitudine: 011-20E, altezza: 262 m

Osservazione

Il bollettino è stato emesso 3 ore e 18 minuti fa, alle 04:50 UTC
Vento 2 kt da direzioni variabili
Temperature 19°C
Umidità 94%
Pressione 1020 hPa
Visibilità 10 km o più
Nubi sparse ad un'altezza di 9000 ft

METAR: LIPB 210450Z VRB02KT 9999 SCT090 19/18 Q1020

Ora: 10:08 (08:08 UTC)

Previsione

Il bollettino è stato emesso 3 ore e 8 minuti fa, alle 05:00 UTC
Previsione valida dal 21 alle 06 UTC al 22 alle 06 UTC
Vento 5 kt da direzioni variabili
Visibilità 10 km o più
Nubi sparse ad un'altezza di 5000 ft
Probabilità 04% :
Temporaneamente
dal 21 alle 13 UTC al 21 alle 18 UTC
temporale, pioggia

TAF: LIPB 210500Z 2106/2206 VRB05KT 9999 SCT050 PROB040 TEMPO 2113/2118 TSRA

Osservazioni e previsioni meteorologiche di più di 4000 aeroporti (messaggi METAR e TAF).

Le stazioni disponibili sono rappresentate dai dischi gialli e rossi sulla carta.

Puntare il mouse per vedere il nome della stazione.

Clicca sopra per visualizzare le osservazioni e previsioni meteorologiche.

Per cambiare la mappa : fare clic sui pulsanti verdi con una croce nera per ingrandire, il pulsante verde con un trattino per diminuire, o sulla freccia verde per le mappe adiacenti.


METAR-TAF: